メインページ
METAR-TAF:

METAR-TAF

空港 :

レイキャヴィーク, アイスランド

レイキャヴィーク空港

緯度: 64-08N, 経度: 021-54W, 海抜: 54m

現時点の気象観測

当レポートは1時間6分前の04:00(UTC)に作成
変向風 2kt
気温 4°C
湿度 75%
気圧 1002 hPa
視程10km以上
高度2600ftの雲はほとんどない
高度4300ftの千切れ雲あり

METAR: BIRK 210400Z VRB02KT 9999 FEW026 BKN043 04/M00 Q1002

時間: 05:06 (05:06 UTC)

予報

当レポートは4時間6分前の01:00(UTC)に作成
予報は21日の 03時(UTC)から 22日の 03時(UTC)まで有効
変向風 2kt
視程10km以上
高度3000ftの雲はほとんどない
高度5000ftの千切れ雲あり
21日の 14時(UTC)から 21日の 17時(UTC)まで徐々に
の風 10kt
高度4000ftの雲は散在している

TAF: BIRK 210100Z 2103/2203 VRB02KT 9999 FEW030 BKN050 TX07/2114Z TN01/2203Z BECMG 2114/2117 35010KT SCT040

4,000以上の空港の気象観測と天気予報(METAR報とTAF報)

利用可能な観測所は地図上に黄色い丸と赤い丸で示す。

丸の上にカーソルを重ねると観測所名を参照できる。

次にクリックすると気象観測と天気予報を参照できる。

マップの切り替え:黒色「×」印の緑ボタンをクリックして拡大、「-」印の緑ボタンをクリックして縮小、緑色の三角印をクリックして隣りの地図に切り替え


METAR-TAF: